Warren, Pennsylvania
Current Conditions -  °F | °C
As of 12:35 AM on Tuesday 27 Jan 2015 (Local Time) from KJHW Reporting Station
Overcast Overcast  
Wind Chill:   Ceiling: 3300
Heat Index: 14°   Visibility: 4mi
Dew Point: 10°   Wind: 7mph
Humidity: 86%   Direction: 40°NE
Pressure: 29.79"   Gusts: NA
Location:  41.84°N, 79.14°W
Report Text: KJHW 270535Z 04006KT 4SM OVC033 M10/M12 A2979 RMK AO1
Loading
Personal Weather Stations






























Interactive Weather Map New forecast layout! Learn more

10-Day Weather Forecast

Advertisements
Track Severe Weather on mobile